EST,Max TemperatureF,Mean TemperatureF,Min TemperatureF,Max Dew PointF,MeanDew PointF,Min DewpointF,Max Humidity, Mean Humidity, Min Humidity, Max Sea Level PressureIn, Mean Sea Level PressureIn, Min Sea Level PressureIn, Max VisibilityMiles, Mean VisibilityMiles, Min VisibilityMiles, Max Wind SpeedMPH, Mean Wind SpeedMPH, Max Gust SpeedMPH,PrecipitationIn, CloudCover, Events, WindDirDegrees
2012-11-1,46,44,42,41,38,35,89,80,68,29.68,29.59,29.50,10,9,6,17,13,28,0.21,8,Rain,267
2012-11-2,44,42,39,36,31,26,76,67,58,29.96,29.76,29.66,10,10,10,16,13,25,0.00,8,,301
2012-11-3,43,40,37,32,30,27,79,69,60,30.12,30.05,29.94,10,10,10,14,12,21,0.00,8,,320
2012-11-4,37,36,35,32,27,25,89,69,60,30.15,30.12,30.09,10,10,9,10,6,,0.00,8,,326
2012-11-5,37,35,33,29,26,23,82,70,64,30.22,30.16,30.10,10,10,5,12,8,,0.00,8,,12
2012-11-6,41,34,27,23,22,20,78,63,49,30.20,30.13,30.04,10,10,10,8,5,,0.00,4,,104
2012-11-7,41,32,24,24,21,19,84,65,43,30.12,30.08,30.04,10,10,10,13,6,,0.00,0,,71
2012-11-8,42,32,23,32,26,19,93,71,55,30.19,30.14,30.11,10,10,10,10,5,,0.00,3,,269
2012-11-9,50,42,34,39,35,31,89,76,52,30.21,30.18,30.12,10,8,5,14,7,23,0.00,7,,240
2012-11-10,61,50,41,46,41,36,93,75,41,30.28,30.21,30.15,10,8,3,15,3,29,0.01,7,Rain,148
2012-11-11,72,66,59,45,36,30,57,36,21,30.27,30.20,30.12,10,10,10,22,14,31,0.00,0,,192
2012-11-12,72,56,39,50,42,33,93,67,34,30.24,30.08,29.89,10,8,3,25,17,40,0.49,5,Rain,213
2012-11-13,39,37,35,30,26,22,76,65,57,30.56,30.40,30.23,10,10,6,16,10,28,0.03,8,Rain-Snow,260
2012-11-14,42,36,30,28,25,21,76,65,45,30.63,30.56,30.47,10,10,10,10,4,,0.00,4,,91
2012-11-15,44,34,25,30,26,21,89,75,51,30.46,30.39,30.34,10,10,10,9,3,,0.00,0,,30
2012-11-16,45,35,25,34,28,22,92,82,63,30.53,30.45,30.36,10,9,6,8,3,,0.00,0,,147
2012-11-17,50,38,26,37,30,23,92,80,57,30.65,30.61,30.53,9,6,3,7,3,,0.00,1,,163
2012-11-18,53,40,26,37,29,23,96,76,47,30.61,30.55,30.47,10,9,2,9,2,,0.00,0,,50
2012-11-19,51,40,28,38,32,27,92,75,56,30.46,30.37,30.23,10,9,7,12,5,,0.00,0,,146
2012-11-20,48,39,30,39,34,28,93,82,59,30.22,30.18,30.12,10,9,4,7,1,,0.00,0,,285
2012-11-21,50,38,26,43,33,24,100,90,64,30.27,30.22,30.17,10,5,0,8,2,,0.00,1,Fog,164
2012-11-22,61,44,28,38,31,24,85,54,40,30.22,30.12,29.95,10,10,10,20,7,29,0.00,0,,198
2012-11-23,53,44,35,45,34,21,93,67,43,29.91,29.78,29.71,10,9,2,28,19,46,0.15,7,Rain-Snow,234
2012-11-24,36,33,30,28,25,18,93,71,54,30.01,29.92,29.84,10,7,0,25,18,40,0.04,8,Fog-Snow,289
2012-11-25,37,32,28,30,24,19,93,73,56,29.99,29.90,29.81,10,7,1,20,12,32,0.06,8,Snow,234
2012-11-26,37,36,34,25,23,21,64,59,52,30.25,30.13,29.94,10,10,10,14,10,23,0.00,7,,278
2012-11-27,35,34,32,25,23,20,73,63,54,30.32,30.28,30.25,10,10,10,10,4,,0.00,8,,284
2012-11-28,37,34,30,27,23,20,72,64,54,30.28,30.24,30.20,10,9,2,18,11,26,0.00,7,Snow,235
2012-11-29,44,38,32,29,24,16,75,58,43,30.31,30.28,30.23,10,10,10,23,12,32,0.00,1,,229
2012-11-30,39,34,28,32,27,21,89,74,50,30.34,30.30,30.25,10,9,6,12,6,,0.00,6,,47